EHFS

Vlissingen

Vlissingen, The Netherlands
METAR EHFS 172055Z AUTO 20022KT 2500 -SHRA SCT003/// BKN005/// OVC006/// 05/04 Q1018 W///H///
Observed Flight Rules
Dec-17 @ 20:55 UTC (32 minutes ago) Instrument Flight Rules
Wind Visibility Clouds Conditions
200° at 22 knots 2,494 meters
  • Scattered at 300' AGL
  • Broken at 500' AGL
  • Overcast at 600' AGL
  • Light Rain
Temperatures Readings
Current 5°C / 41°F
Dewpoint 4°C / 39°F
Humidity 93%
Altimeter 30.06" Hg
Pressure 1018 hPa
Elevation 32
METAR EHFS 172055Z AUTO 20022KT 2500 -SHRA SCT003/// BKN005/// OVC006/// 05/04 Q1018 W///H///
Observed Flight Rules
Dec-17 @ 20:55 UTC
(32 minutes ago)
IFR
Wind Visibility
200° at 22 knots 2,494 meters
Clouds
  • Scattered at 300' AGL
  • Broken at 500' AGL
  • Overcast at 600' AGL
Conditions
  • Light Rain
Temperature Dewpoint
5°C / 41°F 4°C / 39°F
Humidity Altimeter Pressure
93% 30.06" Hg 1018 hPa